Terminal Aerodrome Forecast
Issued by NWS Topeka, KS

Home | Current Version | Previous Version | Text Only | Print | Product List | Glossary On
Versions: 1 2 3 4 5 6 7 8 9 10 11 12 13 14 15 16 17 18
674
FTUS43 KTOP 242320
TAFTOP
TAF
KTOP 242320Z 2500/2524 32007KT P6SM SCT035 SCT130
     FM250100 VRB03KT P6SM FEW200
     FM251400 16009KT P6SM FEW200=

USA.gov is the U.S. government's official web portal to all federal, state and local government web resources and services.